sensor_id;sensor_type;location;lat;lon;timestamp;pressure;altitude;pressure_sealevel;temperature;humidity
47761;BME280;33524;55.434;38.520;2023-05-10T00:02:22;101332.59;;;1.70;80.97
47761;BME280;33524;55.434;38.520;2023-05-10T00:04:51;101352.91;;;1.92;81.16
47761;BME280;33524;55.434;38.520;2023-05-10T00:07:20;101355.19;;;2.07;79.82
47761;BME280;33524;55.434;38.520;2023-05-10T00:09:48;101368.66;;;1.83;79.61
47761;BME280;33524;55.434;38.520;2023-05-10T00:12:16;101362.28;;;1.99;80.06
47761;BME280;33524;55.434;38.520;2023-05-10T00:14:44;101354.34;;;2.05;80.71
47761;BME280;33524;55.434;38.520;2023-05-10T00:17:12;101352.44;;;2.13;80.30
47761;BME280;33524;55.434;38.520;2023-05-10T00:19:41;101350.69;;;2.14;80.43
47761;BME280;33524;55.434;38.520;2023-05-10T00:22:09;101344.44;;;2.22;80.20
47761;BME280;33524;55.434;38.520;2023-05-10T00:24:38;101344.28;;;2.30;79.86
47761;BME280;33524;55.434;38.520;2023-05-10T00:27:06;101352.91;;;2.31;79.47
47761;BME280;33524;55.434;38.520;2023-05-10T00:29:34;101342.94;;;2.12;78.46
47761;BME280;33524;55.434;38.520;2023-05-10T00:32:02;101357.44;;;1.82;81.91
47761;BME280;33524;55.434;38.520;2023-05-10T00:34:31;101360.81;;;2.26;79.89
47761;BME280;33524;55.434;38.520;2023-05-10T00:36:59;101349.34;;;2.35;80.15
47761;BME280;33524;55.434;38.520;2023-05-10T00:39:27;101351.00;;;2.39;80.44
47761;BME280;33524;55.434;38.520;2023-05-10T00:41:56;101364.06;;;2.36;79.47
47761;BME280;33524;55.434;38.520;2023-05-10T00:44:26;101355.31;;;2.40;80.34
47761;BME280;33524;55.434;38.520;2023-05-10T00:46:54;101363.19;;;2.35;79.73
47761;BME280;33524;55.434;38.520;2023-05-10T00:49:22;101367.62;;;2.32;79.13
47761;BME280;33524;55.434;38.520;2023-05-10T00:51:51;101336.59;;;2.26;80.24
47761;BME280;33524;55.434;38.520;2023-05-10T00:54:20;101353.59;;;2.39;80.84
47761;BME280;33524;55.434;38.520;2023-05-10T00:56:48;101354.34;;;2.44;80.53
47761;BME280;33524;55.434;38.520;2023-05-10T00:59:17;101350.00;;;2.45;80.87
47761;BME280;33524;55.434;38.520;2023-05-10T01:01:45;101344.44;;;2.60;79.68
47761;BME280;33524;55.434;38.520;2023-05-10T01:04:14;101358.69;;;3.45;72.89
47761;BME280;33524;55.434;38.520;2023-05-10T01:06:43;101352.31;;;2.91;76.78
47761;BME280;33524;55.434;38.520;2023-05-10T01:09:11;101351.16;;;2.69;79.47
47761;BME280;33524;55.434;38.520;2023-05-10T01:11:40;101346.22;;;2.58;80.51
47761;BME280;33524;55.434;38.520;2023-05-10T01:14:08;101339.34;;;2.55;80.96
47761;BME280;33524;55.434;38.520;2023-05-10T01:16:39;101346.19;;;2.59;80.31
47761;BME280;33524;55.434;38.520;2023-05-10T01:19:28;101344.41;;;2.61;79.59
47761;BME280;33524;55.434;38.520;2023-05-10T01:27:20;101345.34;;;2.59;79.16
47761;BME280;33524;55.434;38.520;2023-05-10T01:30:29;101348.91;;;2.55;79.43
47761;BME280;33524;55.434;38.520;2023-05-10T01:42:19;101340.28;;;2.53;80.55
47761;BME280;33524;55.434;38.520;2023-05-10T01:44:57;101348.69;;;2.27;81.83
47761;BME280;33524;55.434;38.520;2023-05-10T01:47:48;101332.37;;;2.57;80.12
47761;BME280;33524;55.434;38.520;2023-05-10T01:50:22;101343.34;;;2.69;80.08
47761;BME280;33524;55.434;38.520;2023-05-10T01:52:53;101335.56;;;2.69;80.85
47761;BME280;33524;55.434;38.520;2023-05-10T01:55:25;101344.09;;;2.74;80.95
47761;BME280;33524;55.434;38.520;2023-05-10T01:58:19;101341.00;;;2.59;79.50
47761;BME280;33524;55.434;38.520;2023-05-10T02:00:49;101335.41;;;2.75;80.46
47761;BME280;33524;55.434;38.520;2023-05-10T02:03:20;101327.09;;;2.96;79.75
47761;BME280;33524;55.434;38.520;2023-05-10T02:05:50;101329.09;;;2.85;80.91
47761;BME280;33524;55.434;38.520;2023-05-10T02:08:22;101329.84;;;2.90;79.74
47761;BME280;33524;55.434;38.520;2023-05-10T02:10:53;101350.66;;;2.54;83.61
47761;BME280;33524;55.434;38.520;2023-05-10T02:13:24;101336.31;;;2.74;81.74
47761;BME280;33524;55.434;38.520;2023-05-10T02:15:54;101335.75;;;2.95;81.15
47761;BME280;33524;55.434;38.520;2023-05-10T02:18:24;101335.59;;;3.01;81.17
47761;BME280;33524;55.434;38.520;2023-05-10T02:20:55;101326.91;;;3.04;81.19
47761;BME280;33524;55.434;38.520;2023-05-10T02:23:24;101335.28;;;3.14;80.64
47761;BME280;33524;55.434;38.520;2023-05-10T02:25:54;101341.06;;;3.25;79.14
47761;BME280;33524;55.434;38.520;2023-05-10T02:28:23;101333.22;;;3.27;79.14
47761;BME280;33524;55.434;38.520;2023-05-10T02:30:53;101337.56;;;3.26;79.88
47761;BME280;33524;55.434;38.520;2023-05-10T02:33:23;101321.00;;;3.29;80.79
47761;BME280;33524;55.434;38.520;2023-05-10T02:35:52;101310.81;;;3.22;80.87
47761;BME280;33524;55.434;38.520;2023-05-10T02:38:21;101329.28;;;3.43;80.46
47761;BME280;33524;55.434;38.520;2023-05-10T02:40:51;101326.47;;;3.51;80.01
47761;BME280;33524;55.434;38.520;2023-05-10T02:43:22;101326.06;;;3.66;78.02
47761;BME280;33524;55.434;38.520;2023-05-10T02:45:51;101331.94;;;3.73;76.36
47761;BME280;33524;55.434;38.520;2023-05-10T02:48:19;101326.91;;;3.67;78.43
47761;BME280;33524;55.434;38.520;2023-05-10T02:50:50;101327.72;;;3.69;79.95
47761;BME280;33524;55.434;38.520;2023-05-10T02:53:22;101328.28;;;3.49;81.02
47761;BME280;33524;55.434;38.520;2023-05-10T02:55:52;101324.94;;;3.75;79.83
47761;BME280;33524;55.434;38.520;2023-05-10T02:58:25;101330.62;;;3.88;79.33
47761;BME280;33524;55.434;38.520;2023-05-10T03:00:54;101324.38;;;3.93;79.17
47761;BME280;33524;55.434;38.520;2023-05-10T03:03:22;101330.03;;;4.08;78.28
47761;BME280;33524;55.434;38.520;2023-05-10T03:05:50;101321.91;;;4.17;77.58
47761;BME280;33524;55.434;38.520;2023-05-10T03:08:22;101320.03;;;4.22;78.41
47761;BME280;33524;55.434;38.520;2023-05-10T03:11:55;101318.97;;;4.28;78.56
47761;BME280;33524;55.434;38.520;2023-05-10T03:14:16;101318.59;;;4.40;77.83
47761;BME280;33524;55.434;38.520;2023-05-10T03:17:14;101316.59;;;4.48;77.41
47761;BME280;33524;55.434;38.520;2023-05-10T03:19:58;101324.00;;;4.60;75.26
47761;BME280;33524;55.434;38.520;2023-05-10T03:22:34;101326.53;;;4.63;77.55
47761;BME280;33524;55.434;38.520;2023-05-10T03:25:06;101326.13;;;4.76;77.04
47761;BME280;33524;55.434;38.520;2023-05-10T03:27:39;101321.44;;;4.85;77.77
47761;BME280;33524;55.434;38.520;2023-05-10T03:30:13;101314.31;;;4.91;76.88
47761;BME280;33524;55.434;38.520;2023-05-10T03:32:41;101323.16;;;5.12;76.20
47761;BME280;33524;55.434;38.520;2023-05-10T03:35:12;101317.72;;;5.18;76.08
47761;BME280;33524;55.434;38.520;2023-05-10T03:37:43;101326.13;;;5.26;76.21
47761;BME280;33524;55.434;38.520;2023-05-10T03:40:11;101322.34;;;5.35;75.88
47761;BME280;33524;55.434;38.520;2023-05-10T03:42:40;101316.81;;;5.44;75.66
47761;BME280;33524;55.434;38.520;2023-05-10T03:45:08;101300.34;;;5.42;75.53
47761;BME280;33524;55.434;38.520;2023-05-10T03:47:37;101314.81;;;5.51;74.27
47761;BME280;33524;55.434;38.520;2023-05-10T03:50:06;101318.75;;;5.62;73.11
47761;BME280;33524;55.434;38.520;2023-05-10T03:52:34;101319.59;;;5.63;72.17
47761;BME280;33524;55.434;38.520;2023-05-10T03:55:03;101322.63;;;5.74;71.42
47761;BME280;33524;55.434;38.520;2023-05-10T03:57:31;101308.78;;;5.72;70.82
47761;BME280;33524;55.434;38.520;2023-05-10T04:00:00;101323.09;;;5.85;71.03
47761;BME280;33524;55.434;38.520;2023-05-10T04:02:32;101320.25;;;5.92;71.19
47761;BME280;33524;55.434;38.520;2023-05-10T04:05:01;101311.44;;;5.96;71.63
47761;BME280;33524;55.434;38.520;2023-05-10T04:07:30;101320.47;;;6.09;71.06
47761;BME280;33524;55.434;38.520;2023-05-10T04:09:58;101313.94;;;6.21;72.15
47761;BME280;33524;55.434;38.520;2023-05-10T04:12:26;101314.53;;;6.28;72.49
47761;BME280;33524;55.434;38.520;2023-05-10T04:14:54;101314.09;;;6.38;72.25
47761;BME280;33524;55.434;38.520;2023-05-10T04:17:23;101302.69;;;6.41;72.20
47761;BME280;33524;55.434;38.520;2023-05-10T04:19:51;101308.19;;;6.55;71.25
47761;BME280;33524;55.434;38.520;2023-05-10T04:22:22;101302.78;;;6.60;71.05
47761;BME280;33524;55.434;38.520;2023-05-10T04:24:50;101307.09;;;6.81;70.56
47761;BME280;33524;55.434;38.520;2023-05-10T04:27:18;101306.53;;;6.95;71.05
47761;BME280;33524;55.434;38.520;2023-05-10T04:29:47;101303.22;;;7.11;71.19
47761;BME280;33524;55.434;38.520;2023-05-10T04:32:16;101305.41;;;7.21;69.71
47761;BME280;33524;55.434;38.520;2023-05-10T04:34:45;101311.78;;;7.35;68.82
47761;BME280;33524;55.434;38.520;2023-05-10T04:37:12;101312.06;;;7.47;68.19
47761;BME280;33524;55.434;38.520;2023-05-10T04:39:41;101314.19;;;7.58;67.90
47761;BME280;33524;55.434;38.520;2023-05-10T04:42:09;101302.34;;;7.70;66.99
47761;BME280;33524;55.434;38.520;2023-05-10T04:44:37;101300.75;;;7.85;66.60
47761;BME280;33524;55.434;38.520;2023-05-10T04:47:06;101298.56;;;7.95;66.20
47761;BME280;33524;55.434;38.520;2023-05-10T04:49:36;101303.53;;;8.01;64.96
47761;BME280;33524;55.434;38.520;2023-05-10T04:52:04;101299.97;;;8.02;64.76
47761;BME280;33524;55.434;38.520;2023-05-10T04:54:33;101296.22;;;8.07;64.51
47761;BME280;33524;55.434;38.520;2023-05-10T04:57:01;101298.97;;;8.23;63.68
47761;BME280;33524;55.434;38.520;2023-05-10T04:59:29;101289.31;;;8.43;63.27
47761;BME280;33524;55.434;38.520;2023-05-10T05:01:57;101294.09;;;8.69;62.15
47761;BME280;33524;55.434;38.520;2023-05-10T05:04:26;101286.38;;;8.84;60.70
47761;BME280;33524;55.434;38.520;2023-05-10T05:06:54;101287.78;;;8.91;60.84
47761;BME280;33524;55.434;38.520;2023-05-10T05:09:23;101287.91;;;9.05;60.40
47761;BME280;33524;55.434;38.520;2023-05-10T05:11:51;101297.16;;;9.13;59.83
47761;BME280;33524;55.434;38.520;2023-05-10T05:14:20;101292.19;;;9.24;58.95
47761;BME280;33524;55.434;38.520;2023-05-10T05:16:53;101284.28;;;9.41;58.80
47761;BME280;33524;55.434;38.520;2023-05-10T05:19:21;101294.06;;;9.55;58.59
47761;BME280;33524;55.434;38.520;2023-05-10T05:21:50;101293.22;;;9.86;57.72
47761;BME280;33524;55.434;38.520;2023-05-10T05:24:19;101289.50;;;9.90;57.02
47761;BME280;33524;55.434;38.520;2023-05-10T05:26:48;101284.41;;;10.03;56.50
47761;BME280;33524;55.434;38.520;2023-05-10T05:29:16;101284.91;;;10.10;56.20
47761;BME280;33524;55.434;38.520;2023-05-10T05:31:44;101281.91;;;10.16;56.27
47761;BME280;33524;55.434;38.520;2023-05-10T05:34:13;101285.59;;;10.29;56.26
47761;BME280;33524;55.434;38.520;2023-05-10T05:36:41;101265.62;;;10.25;56.08
47761;BME280;33524;55.434;38.520;2023-05-10T05:39:10;101275.25;;;10.57;55.49
47761;BME280;33524;55.434;38.520;2023-05-10T05:41:38;101265.97;;;10.65;55.28
47761;BME280;33524;55.434;38.520;2023-05-10T05:44:10;101277.41;;;10.95;54.09
47761;BME280;33524;55.434;38.520;2023-05-10T05:46:38;101263.78;;;11.02;54.03
47761;BME280;33524;55.434;38.520;2023-05-10T05:49:06;101279.28;;;11.50;53.86
47761;BME280;33524;55.434;38.520;2023-05-10T05:51:35;101270.87;;;12.41;49.82
47761;BME280;33524;55.434;38.520;2023-05-10T05:54:03;101270.44;;;12.34;50.34
47761;BME280;33524;55.434;38.520;2023-05-10T05:56:32;101259.53;;;12.91;50.86
47761;BME280;33524;55.434;38.520;2023-05-10T05:59:00;101255.41;;;14.48;46.37
47761;BME280;33524;55.434;38.520;2023-05-10T06:01:28;101259.03;;;13.38;46.41
47761;BME280;33524;55.434;38.520;2023-05-10T06:03:57;101254.91;;;12.69;47.32
47761;BME280;33524;55.434;38.520;2023-05-10T06:06:25;101257.88;;;12.78;48.24
47761;BME280;33524;55.434;38.520;2023-05-10T06:08:54;101250.47;;;14.08;43.40
47761;BME280;33524;55.434;38.520;2023-05-10T06:11:22;101252.78;;;13.39;43.62
47761;BME280;33524;55.434;38.520;2023-05-10T06:13:51;101241.66;;;15.68;44.11
47761;BME280;33524;55.434;38.520;2023-05-10T06:16:22;101234.03;;;15.98;42.28
47761;BME280;33524;55.434;38.520;2023-05-10T06:18:51;101231.91;;;17.18;42.41
47761;BME280;33524;55.434;38.520;2023-05-10T06:21:19;101230.84;;;16.36;38.79
47761;BME280;33524;55.434;38.520;2023-05-10T06:23:48;101234.72;;;16.11;41.62
47761;BME280;33524;55.434;38.520;2023-05-10T06:26:16;101232.28;;;16.61;44.64
47761;BME280;33524;55.434;38.520;2023-05-10T06:28:44;101225.12;;;17.85;41.38
47761;BME280;33524;55.434;38.520;2023-05-10T06:31:13;101225.88;;;17.15;35.36
47761;BME280;33524;55.434;38.520;2023-05-10T06:33:41;101229.97;;;17.80;42.47
47761;BME280;33524;55.434;38.520;2023-05-10T06:36:09;101228.88;;;18.80;40.82
47761;BME280;33524;55.434;38.520;2023-05-10T06:38:38;101227.75;;;19.20;40.20
47761;BME280;33524;55.434;38.520;2023-05-10T06:41:07;101229.22;;;19.32;39.68
47761;BME280;33524;55.434;38.520;2023-05-10T06:43:36;101221.47;;;19.11;36.36
47761;BME280;33524;55.434;38.520;2023-05-10T06:46:08;101221.97;;;19.70;37.21
47761;BME280;33524;55.434;38.520;2023-05-10T06:48:37;101222.22;;;18.17;33.46
47761;BME280;33524;55.434;38.520;2023-05-10T06:51:05;101219.13;;;20.17;39.90
47761;BME280;33524;55.434;38.520;2023-05-10T06:53:34;101216.19;;;19.56;38.89
47761;BME280;33524;55.434;38.520;2023-05-10T06:56:02;101206.50;;;20.63;39.28
47761;BME280;33524;55.434;38.520;2023-05-10T06:58:31;101205.47;;;20.20;29.95
47761;BME280;33524;55.434;38.520;2023-05-10T07:01:04;101200.00;;;20.48;36.53
47761;BME280;33524;55.434;38.520;2023-05-10T07:03:33;101202.66;;;18.55;32.88
47761;BME280;33524;55.434;38.520;2023-05-10T07:06:02;101196.66;;;19.01;42.13
47761;BME280;33524;55.434;38.520;2023-05-10T07:08:31;101193.44;;;20.16;33.51
47761;BME280;33524;55.434;38.520;2023-05-10T07:11:03;101192.25;;;19.65;40.07
47761;BME280;33524;55.434;38.520;2023-05-10T07:13:33;101202.53;;;18.47;30.58
47761;BME280;33524;55.434;38.520;2023-05-10T07:16:02;101198.53;;;19.18;30.17
47761;BME280;33524;55.434;38.520;2023-05-10T07:18:30;101201.47;;;17.91;30.17
47761;BME280;33524;55.434;38.520;2023-05-10T07:20:59;101203.88;;;19.91;29.10
47761;BME280;33524;55.434;38.520;2023-05-10T07:23:27;101204.50;;;17.77;29.81
47761;BME280;33524;55.434;38.520;2023-05-10T07:25:55;101197.19;;;19.87;28.21
47761;BME280;33524;55.434;38.520;2023-05-10T07:28:25;101184.34;;;21.13;35.21
47761;BME280;33524;55.434;38.520;2023-05-10T07:30:53;101185.34;;;21.12;40.57
47761;BME280;33524;55.434;38.520;2023-05-10T07:33:21;101178.03;;;21.73;27.57
47761;BME280;33524;55.434;38.520;2023-05-10T07:35:50;101179.81;;;24.43;35.24
47761;BME280;33524;55.434;38.520;2023-05-10T07:38:18;101186.03;;;20.10;26.57
47761;BME280;33524;55.434;38.520;2023-05-10T07:40:46;101167.38;;;21.39;36.53
47761;BME280;33524;55.434;38.520;2023-05-10T07:43:15;101171.28;;;20.24;41.36
47761;BME280;33524;55.434;38.520;2023-05-10T07:45:43;101161.75;;;23.52;37.45
47761;BME280;33524;55.434;38.520;2023-05-10T07:48:11;101161.75;;;25.26;33.85
47761;BME280;33524;55.434;38.520;2023-05-10T07:50:40;101158.97;;;25.19;33.94
47761;BME280;33524;55.434;38.520;2023-05-10T07:53:09;101160.16;;;25.68;33.16
47761;BME280;33524;55.434;38.520;2023-05-10T07:55:37;101167.81;;;23.77;34.44
47761;BME280;33524;55.434;38.520;2023-05-10T07:58:06;101162.03;;;21.39;36.96
47761;BME280;33524;55.434;38.520;2023-05-10T08:00:34;101152.75;;;22.42;37.37
47761;BME280;33524;55.434;38.520;2023-05-10T08:03:03;101158.31;;;20.55;23.79
47761;BME280;33524;55.434;38.520;2023-05-10T08:05:34;101159.00;;;19.41;24.22
47761;BME280;33524;55.434;38.520;2023-05-10T08:08:03;101158.47;;;20.80;40.08
47761;BME280;33524;55.434;38.520;2023-05-10T08:10:32;101160.94;;;18.93;25.54
47761;BME280;33524;55.434;38.520;2023-05-10T08:13:00;101160.41;;;18.23;29.90
47761;BME280;33524;55.434;38.520;2023-05-10T08:15:28;101156.06;;;18.22;27.23
47761;BME280;33524;55.434;38.520;2023-05-10T08:17:56;101159.03;;;19.04;27.12
47761;BME280;33524;55.434;38.520;2023-05-10T08:20:25;101154.91;;;18.25;30.42
47761;BME280;33524;55.434;38.520;2023-05-10T08:22:54;101150.16;;;18.28;26.21
47761;BME280;33524;55.434;38.520;2023-05-10T08:25:22;101147.94;;;18.14;26.66
47761;BME280;33524;55.434;38.520;2023-05-10T08:27:51;101139.81;;;19.91;27.41
47761;BME280;33524;55.434;38.520;2023-05-10T08:30:19;101144.00;;;18.08;25.72
47761;BME280;33524;55.434;38.520;2023-05-10T08:32:48;101138.97;;;17.76;26.46
47761;BME280;33524;55.434;38.520;2023-05-10T08:35:16;101129.59;;;18.58;26.40
47761;BME280;33524;55.434;38.520;2023-05-10T08:37:45;101132.00;;;21.94;40.21
47761;BME280;33524;55.434;38.520;2023-05-10T08:40:15;101138.63;;;18.94;28.44
47761;BME280;33524;55.434;38.520;2023-05-10T08:42:51;101129.84;;;17.69;25.64
47761;BME280;33524;55.434;38.520;2023-05-10T08:45:23;101132.66;;;19.74;31.87
47761;BME280;33524;55.434;38.520;2023-05-10T08:47:52;101125.97;;;20.14;21.61
47761;BME280;33524;55.434;38.520;2023-05-10T08:50:22;101120.44;;;20.94;31.47
47761;BME280;33524;55.434;38.520;2023-05-10T08:52:52;101116.13;;;25.03;33.42
47761;BME280;33524;55.434;38.520;2023-05-10T08:55:23;101117.25;;;22.40;29.15
47761;BME280;33524;55.434;38.520;2023-05-10T08:57:52;101118.47;;;22.04;22.05
47761;BME280;33524;55.434;38.520;2023-05-10T09:00:21;101104.34;;;20.78;23.95
47761;BME280;33524;55.434;38.520;2023-05-10T09:02:51;101126.31;;;18.84;26.16
47761;BME280;33524;55.434;38.520;2023-05-10T09:05:20;101126.91;;;18.21;26.78
47761;BME280;33524;55.434;38.520;2023-05-10T09:07:48;101126.91;;;17.82;26.74
47761;BME280;33524;55.434;38.520;2023-05-10T09:10:18;101122.44;;;17.72;26.64
47761;BME280;33524;55.434;38.520;2023-05-10T09:12:46;101122.63;;;17.11;26.10
47761;BME280;33524;55.434;38.520;2023-05-10T09:15:16;101123.53;;;17.31;26.43
47761;BME280;33524;55.434;38.520;2023-05-10T09:17:49;101121.81;;;17.10;25.40
47761;BME280;33524;55.434;38.520;2023-05-10T09:20:18;101115.03;;;16.97;25.83
47761;BME280;33524;55.434;38.520;2023-05-10T09:22:47;101114.66;;;17.01;26.27
47761;BME280;33524;55.434;38.520;2023-05-10T09:25:16;101109.88;;;16.64;24.87
47761;BME280;33524;55.434;38.520;2023-05-10T09:27:47;101102.41;;;17.59;27.92
47761;BME280;33524;55.434;38.520;2023-05-10T09:30:19;101099.91;;;17.77;25.27
47761;BME280;33524;55.434;38.520;2023-05-10T09:32:55;101089.81;;;17.61;25.83
47761;BME280;33524;55.434;38.520;2023-05-10T09:35:27;101084.66;;;17.59;24.71
47761;BME280;33524;55.434;38.520;2023-05-10T09:37:59;101085.47;;;17.50;25.28
47761;BME280;33524;55.434;38.520;2023-05-10T09:40:29;101084.50;;;17.80;24.87
47761;BME280;33524;55.434;38.520;2023-05-10T09:45:34;101086.72;;;18.14;24.57
47761;BME280;33524;55.434;38.520;2023-05-10T09:48:05;101080.16;;;17.99;24.31
47761;BME280;33524;55.434;38.520;2023-05-10T09:50:34;101084.03;;;17.17;24.32
47761;BME280;33524;55.434;38.520;2023-05-10T09:53:03;101076.78;;;17.48;33.30
47761;BME280;33524;55.434;38.520;2023-05-10T09:55:44;101069.12;;;17.45;24.57
47761;BME280;33524;55.434;38.520;2023-05-10T09:58:14;101074.56;;;17.72;25.56
47761;BME280;33524;55.434;38.520;2023-05-10T10:00:44;101076.88;;;17.07;24.18
47761;BME280;33524;55.434;38.520;2023-05-10T10:03:15;101066.31;;;17.66;24.34
47761;BME280;33524;55.434;38.520;2023-05-10T10:05:44;101064.88;;;19.31;34.08
47761;BME280;33524;55.434;38.520;2023-05-10T10:08:13;101052.75;;;20.51;22.99
47761;BME280;33524;55.434;38.520;2023-05-10T10:10:42;101054.50;;;20.34;23.38
47761;BME280;33524;55.434;38.520;2023-05-10T10:13:14;101052.91;;;20.49;23.39
47761;BME280;33524;55.434;38.520;2023-05-10T10:15:43;101048.00;;;19.48;24.54
47761;BME280;33524;55.434;38.520;2023-05-10T10:18:13;101043.81;;;20.42;35.77
47761;BME280;33524;55.434;38.520;2023-05-10T10:20:43;101036.81;;;21.43;23.35
47761;BME280;33524;55.434;38.520;2023-05-10T10:23:12;101033.94;;;22.58;22.40
47761;BME280;33524;55.434;38.520;2023-05-10T10:25:45;101034.84;;;20.78;23.72
47761;BME280;33524;55.434;38.520;2023-05-10T10:28:28;101031.78;;;21.31;22.94
47761;BME280;33524;55.434;38.520;2023-05-10T10:31:23;101025.75;;;20.36;23.41
47761;BME280;33524;55.434;38.520;2023-05-10T10:34:09;101023.59;;;21.49;24.39
47761;BME280;33524;55.434;38.520;2023-05-10T10:36:48;101031.16;;;19.66;24.82
47761;BME280;33524;55.434;38.520;2023-05-10T10:39:18;101028.59;;;19.38;23.16
47761;BME280;33524;55.434;38.520;2023-05-10T10:41:54;101018.53;;;19.32;23.90
47761;BME280;33524;55.434;38.520;2023-05-10T10:47:05;101024.22;;;19.55;24.20
47761;BME280;33524;55.434;38.520;2023-05-10T10:49:45;101025.91;;;19.38;24.21
47761;BME280;33524;55.434;38.520;2023-05-10T10:52:27;101019.34;;;19.50;23.72
47761;BME280;33524;55.434;38.520;2023-05-10T10:57:45;101013.50;;;19.47;22.65
47761;BME280;33524;55.434;38.520;2023-05-10T11:03:03;101012.87;;;19.53;24.42
47761;BME280;33524;55.434;38.520;2023-05-10T11:08:17;101008.06;;;20.01;31.46
47761;BME280;33524;55.434;38.520;2023-05-10T11:13:46;100997.81;;;21.24;22.04
47761;BME280;33524;55.434;38.520;2023-05-10T11:16:23;100997.69;;;20.58;23.56
47761;BME280;33524;55.434;38.520;2023-05-10T11:18:58;100993.22;;;20.32;23.21
47761;BME280;33524;55.434;38.520;2023-05-10T11:21:28;100979.19;;;20.30;21.48
47761;BME280;33524;55.434;38.520;2023-05-10T11:23:59;100970.91;;;18.55;22.95
47761;BME280;33524;55.434;38.520;2023-05-10T11:26:33;100991.75;;;18.42;24.92
47761;BME280;33524;55.434;38.520;2023-05-10T11:29:01;100977.62;;;19.05;24.29
47761;BME280;33524;55.434;38.520;2023-05-10T11:31:32;100980.38;;;20.02;24.87
47761;BME280;33524;55.434;38.520;2023-05-10T11:34:00;100979.28;;;19.42;23.41
47761;BME280;33524;55.434;38.520;2023-05-10T11:36:34;100982.75;;;18.43;22.59
47761;BME280;33524;55.434;38.520;2023-05-10T11:39:03;100966.16;;;20.35;25.08
47761;BME280;33524;55.434;38.520;2023-05-10T11:41:32;100972.13;;;20.21;23.73
47761;BME280;33524;55.434;38.520;2023-05-10T11:44:00;100969.37;;;20.39;23.34
47761;BME280;33524;55.434;38.520;2023-05-10T11:46:29;100969.91;;;20.51;22.45
47761;BME280;33524;55.434;38.520;2023-05-10T11:49:00;100962.81;;;20.76;21.49
47761;BME280;33524;55.434;38.520;2023-05-10T11:51:34;100959.66;;;19.95;21.14
47761;BME280;33524;55.434;38.520;2023-05-10T11:54:08;100959.22;;;19.82;21.45
47761;BME280;33524;55.434;38.520;2023-05-10T11:56:38;100943.69;;;20.04;21.66
47761;BME280;33524;55.434;38.520;2023-05-10T11:59:07;100943.88;;;20.10;22.87
47761;BME280;33524;55.434;38.520;2023-05-10T12:01:36;100954.22;;;19.79;24.55
47761;BME280;33524;55.434;38.520;2023-05-10T12:04:04;100944.94;;;19.21;21.47
47761;BME280;33524;55.434;38.520;2023-05-10T12:06:40;100933.34;;;19.30;21.58
47761;BME280;33524;55.434;38.520;2023-05-10T12:09:09;100935.50;;;17.90;22.57
47761;BME280;33524;55.434;38.520;2023-05-10T12:11:39;100931.66;;;17.55;23.52
47761;BME280;33524;55.434;38.520;2023-05-10T12:14:11;100936.72;;;17.95;24.01
47761;BME280;33524;55.434;38.520;2023-05-10T12:16:39;100939.09;;;18.54;24.87
47761;BME280;33524;55.434;38.520;2023-05-10T12:19:07;100934.91;;;18.79;23.71
47761;BME280;33524;55.434;38.520;2023-05-10T12:21:36;100938.63;;;21.10;31.96
47761;BME280;33524;55.434;38.520;2023-05-10T12:24:07;100928.41;;;20.98;23.13
47761;BME280;33524;55.434;38.520;2023-05-10T12:26:36;100926.34;;;20.08;31.25
47761;BME280;33524;55.434;38.520;2023-05-10T12:29:19;100935.75;;;19.60;24.12
47761;BME280;33524;55.434;38.520;2023-05-10T12:31:57;100930.53;;;19.32;23.92
47761;BME280;33524;55.434;38.520;2023-05-10T12:34:29;100935.56;;;18.63;23.03
47761;BME280;33524;55.434;38.520;2023-05-10T12:36:58;100929.16;;;18.28;23.20
47761;BME280;33524;55.434;38.520;2023-05-10T12:39:38;100931.31;;;18.43;24.52
47761;BME280;33524;55.434;38.520;2023-05-10T12:42:06;100930.94;;;18.38;24.02
47761;BME280;33524;55.434;38.520;2023-05-10T12:44:35;100910.12;;;22.31;23.28
47761;BME280;33524;55.434;38.520;2023-05-10T12:47:03;100910.19;;;19.31;25.15
47761;BME280;33524;55.434;38.520;2023-05-10T12:49:31;100908.28;;;18.79;25.73
47761;BME280;33524;55.434;38.520;2023-05-10T12:52:00;100905.75;;;18.32;23.66
47761;BME280;33524;55.434;38.520;2023-05-10T12:54:28;100920.78;;;17.95;23.96
47761;BME280;33524;55.434;38.520;2023-05-10T12:56:56;100908.50;;;17.75;24.78
47761;BME280;33524;55.434;38.520;2023-05-10T12:59:24;100922.28;;;16.63;24.40
47761;BME280;33524;55.434;38.520;2023-05-10T13:01:52;100915.88;;;17.34;26.91
47761;BME280;33524;55.434;38.520;2023-05-10T13:04:20;100918.66;;;17.42;25.38
47761;BME280;33524;55.434;38.520;2023-05-10T13:06:49;100914.19;;;17.43;24.98
47761;BME280;33524;55.434;38.520;2023-05-10T13:09:17;100899.50;;;19.57;32.67
47761;BME280;33524;55.434;38.520;2023-05-10T13:11:45;100910.06;;;19.41;24.77
47761;BME280;33524;55.434;38.520;2023-05-10T13:14:15;100900.72;;;18.92;28.23
47761;BME280;33524;55.434;38.520;2023-05-10T13:16:43;100900.78;;;19.97;33.59
47761;BME280;33524;55.434;38.520;2023-05-10T13:19:12;100897.00;;;20.91;31.51
47761;BME280;33524;55.434;38.520;2023-05-10T13:21:40;100893.63;;;21.55;31.38
47761;BME280;33524;55.434;38.520;2023-05-10T13:24:08;100892.31;;;19.05;26.84
47761;BME280;33524;55.434;38.520;2023-05-10T13:26:37;100903.47;;;18.37;26.79
47761;BME280;33524;55.434;38.520;2023-05-10T13:29:06;100899.13;;;18.54;26.02
47761;BME280;33524;55.434;38.520;2023-05-10T13:31:34;100915.16;;;18.26;26.51